createdAt,value
2022-08-03T00:01:48.126Z,18.35
2022-08-03T00:04:14.463Z,18.30
2022-08-03T00:06:40.820Z,18.28
2022-08-03T00:09:07.498Z,18.26
2022-08-03T00:11:34.054Z,18.22
2022-08-03T00:14:01.272Z,18.19
2022-08-03T00:16:27.609Z,18.20
2022-08-03T00:18:54.006Z,18.19
2022-08-03T00:21:20.366Z,18.19
2022-08-03T00:23:51.369Z,18.17
2022-08-03T00:26:19.605Z,18.13
2022-08-03T00:28:46.006Z,18.15
2022-08-03T00:31:13.427Z,18.14
2022-08-03T00:33:59.174Z,18.14
2022-08-03T00:36:27.406Z,18.12
2022-08-03T00:38:53.844Z,18.10
2022-08-03T00:41:20.248Z,18.13
2022-08-03T00:43:46.651Z,18.07
2022-08-03T00:46:16.429Z,18.09
2022-08-03T00:48:47.095Z,18.02
2022-08-03T00:51:13.567Z,17.98
2022-08-03T00:53:39.954Z,17.92
2022-08-03T00:56:06.334Z,17.91
2022-08-03T00:58:32.771Z,17.89
2022-08-03T01:00:59.207Z,17.81
2022-08-03T01:03:25.739Z,17.77
2022-08-03T01:05:54.715Z,17.78
2022-08-03T01:08:46.656Z,17.76
2022-08-03T01:12:00.543Z,17.68
2022-08-03T01:14:37.054Z,17.71
2022-08-03T01:17:30.620Z,17.66
2022-08-03T01:20:08.106Z,17.66
2022-08-03T01:22:51.707Z,17.67
2022-08-03T01:25:42.885Z,17.67
2022-08-03T01:28:45.167Z,17.59
2022-08-03T01:31:14.203Z,17.63
2022-08-03T01:33:51.041Z,17.58
2022-08-03T01:36:22.718Z,17.54
2022-08-03T01:38:58.640Z,17.52
2022-08-03T01:41:30.763Z,17.48
2022-08-03T01:44:27.416Z,17.47
2022-08-03T01:46:48.901Z,17.49
2022-08-03T01:49:16.732Z,17.48
2022-08-03T01:52:03.617Z,17.37
2022-08-03T01:54:32.613Z,17.32
2022-08-03T01:56:59.658Z,17.26
2022-08-03T01:59:28.953Z,17.19
2022-08-03T02:02:28.443Z,17.11
2022-08-03T02:04:46.865Z,17.10
2022-08-03T02:07:15.166Z,17.09
2022-08-03T02:09:44.716Z,17.09
2022-08-03T02:12:13.733Z,17.08
2022-08-03T02:14:43.137Z,17.12
2022-08-03T02:17:10.423Z,17.16
2022-08-03T02:19:38.674Z,17.25
2022-08-03T02:22:08.282Z,17.22
2022-08-03T02:24:34.754Z,17.23
2022-08-03T02:27:04.092Z,17.20
2022-08-03T02:29:39.629Z,17.14
2022-08-03T02:32:09.911Z,17.14
2022-08-03T02:34:37.661Z,17.15
2022-08-03T02:37:04.657Z,17.07
2022-08-03T02:39:34.170Z,17.01
2022-08-03T02:42:01.371Z,17.02
2022-08-03T02:44:30.510Z,16.96
2022-08-03T02:47:01.940Z,16.95
2022-08-03T02:49:49.445Z,16.95
2022-08-03T02:52:18.206Z,16.92
2022-08-03T02:54:47.744Z,16.94
2022-08-03T02:57:16.027Z,16.94
2022-08-03T02:59:44.250Z,16.89
2022-08-03T03:02:12.162Z,16.84
2022-08-03T03:04:38.971Z,16.81
2022-08-03T03:07:26.719Z,16.77
2022-08-03T03:09:55.459Z,16.82
2022-08-03T03:12:22.535Z,16.79
2022-08-03T03:14:49.006Z,16.78
2022-08-03T03:17:17.228Z,16.76
2022-08-03T03:19:45.114Z,16.80
2022-08-03T03:22:13.110Z,16.79
2022-08-03T03:24:41.575Z,16.75
2022-08-03T03:27:08.671Z,16.71
2022-08-03T03:29:39.156Z,16.76
2022-08-03T03:32:08.229Z,16.75
2022-08-03T03:34:36.487Z,16.71
2022-08-03T03:37:02.882Z,16.70
2022-08-03T03:39:29.360Z,16.67
2022-08-03T03:41:55.905Z,16.66
2022-08-03T03:44:22.277Z,16.67
2022-08-03T03:46:48.658Z,16.68
2022-08-03T03:49:15.684Z,16.64
2022-08-03T03:51:42.101Z,16.63
2022-08-03T03:54:08.444Z,16.62
2022-08-03T03:56:34.816Z,16.64
2022-08-03T03:59:01.214Z,16.67
2022-08-03T04:01:27.619Z,16.65
2022-08-03T04:03:54.033Z,16.62
2022-08-03T04:06:20.562Z,16.54
2022-08-03T04:08:46.890Z,16.61
2022-08-03T04:11:34.109Z,16.63
2022-08-03T04:14:04.960Z,16.69
2022-08-03T04:16:35.023Z,16.75
2022-08-03T04:19:05.222Z,16.76
2022-08-03T04:21:33.960Z,16.75
2022-08-03T04:24:03.697Z,16.83
2022-08-03T04:26:33.693Z,16.88
2022-08-03T04:29:00.904Z,16.96
2022-08-03T04:31:28.214Z,17.05
2022-08-03T04:33:55.325Z,17.09
2022-08-03T04:36:25.900Z,17.12
2022-08-03T04:39:04.315Z,17.20
2022-08-03T04:41:32.071Z,17.29
2022-08-03T04:44:20.381Z,17.41
2022-08-03T04:46:52.523Z,17.47
2022-08-03T04:49:21.541Z,17.61
2022-08-03T04:51:49.032Z,17.64
2022-08-03T04:54:16.189Z,17.72
2022-08-03T04:56:45.554Z,17.80
2022-08-03T04:59:13.107Z,17.95
2022-08-03T05:01:40.364Z,17.99
2022-08-03T05:04:06.742Z,18.21
2022-08-03T05:06:33.091Z,18.34
2022-08-03T05:08:59.613Z,18.49
2022-08-03T05:11:26.064Z,18.60
2022-08-03T05:13:52.454Z,18.71
2022-08-03T05:16:18.915Z,19.03
2022-08-03T05:18:45.260Z,19.12
2022-08-03T05:21:13.462Z,19.17
2022-08-03T05:23:40.347Z,19.13
2022-08-03T05:26:06.870Z,19.04
2022-08-03T05:28:33.249Z,19.01
2022-08-03T05:30:59.591Z,19.23
2022-08-03T05:33:25.934Z,19.45
2022-08-03T05:36:00.709Z,19.65
2022-08-03T05:38:34.298Z,19.92
2022-08-03T05:41:22.294Z,20.26
2022-08-03T05:43:50.209Z,20.63
2022-08-03T05:46:16.582Z,20.71
2022-08-03T05:48:43.043Z,20.84
2022-08-03T05:51:09.435Z,20.92
2022-08-03T05:53:35.839Z,20.93
2022-08-03T05:56:13.201Z,21.05
2022-08-03T05:58:42.200Z,21.27
2022-08-03T06:01:08.563Z,21.27
2022-08-03T06:03:34.961Z,21.31
2022-08-03T06:06:01.349Z,21.42
2022-08-03T06:08:27.711Z,21.39
2022-08-03T06:10:54.054Z,21.53
2022-08-03T06:13:20.380Z,21.55
2022-08-03T06:15:46.746Z,21.82
2022-08-03T06:18:13.150Z,21.88
2022-08-03T06:20:39.498Z,22.28
2022-08-03T06:23:06.415Z,22.67
2022-08-03T06:25:33.894Z,23.26
2022-08-03T06:28:00.272Z,23.58
2022-08-03T06:30:26.800Z,23.72
2022-08-03T06:32:53.359Z,23.82
2022-08-03T06:35:19.906Z,24.05
2022-08-03T06:37:48.602Z,24.23
2022-08-03T06:40:21.911Z,24.63
2022-08-03T06:42:51.116Z,25.02
2022-08-03T06:45:18.045Z,25.07
2022-08-03T06:47:44.571Z,25.23
2022-08-03T06:50:16.780Z,25.30
2022-08-03T06:52:43.794Z,24.94
2022-08-03T06:55:10.144Z,24.70
2022-08-03T06:57:36.467Z,24.46
2022-08-03T07:00:09.304Z,24.28
2022-08-03T07:02:38.738Z,24.32
2022-08-03T07:05:06.054Z,24.30
2022-08-03T07:07:32.447Z,24.42
2022-08-03T07:09:58.796Z,24.54
2022-08-03T07:12:28.785Z,24.50
2022-08-03T07:15:00.249Z,24.42
2022-08-03T07:17:30.160Z,24.68
2022-08-03T07:19:57.055Z,24.93
2022-08-03T07:22:23.591Z,25.24
2022-08-03T07:24:49.925Z,25.29
2022-08-03T07:27:16.810Z,25.42
2022-08-03T07:29:43.171Z,25.21
2022-08-03T07:32:09.616Z,25.26
2022-08-03T07:34:36.008Z,25.36
2022-08-03T07:37:02.388Z,25.37
2022-08-03T07:39:28.840Z,25.41
2022-08-03T07:41:55.184Z,25.58
2022-08-03T07:44:21.660Z,25.76
2022-08-03T07:46:48.175Z,25.85
2022-08-03T07:49:14.591Z,25.95
2022-08-03T07:51:40.974Z,26.21
2022-08-03T07:54:07.301Z,26.48
2022-08-03T07:56:33.753Z,26.48
2022-08-03T07:59:00.215Z,26.75
2022-08-03T08:01:26.599Z,26.92
2022-08-03T08:03:53.737Z,26.81
2022-08-03T08:06:20.723Z,26.55
2022-08-03T08:08:47.441Z,26.53
2022-08-03T08:11:13.889Z,26.71
2022-08-03T08:13:40.213Z,26.93
2022-08-03T08:16:06.557Z,27.19
2022-08-03T08:18:33.069Z,27.41
2022-08-03T08:20:59.398Z,27.54
2022-08-03T08:23:42.261Z,27.56
2022-08-03T08:26:10.540Z,27.73
2022-08-03T08:28:36.893Z,27.76
2022-08-03T08:31:03.291Z,27.76
2022-08-03T08:33:42.474Z,27.81
2022-08-03T08:36:16.110Z,27.86
2022-08-03T08:38:43.589Z,27.77
2022-08-03T08:41:11.207Z,27.81
2022-08-03T08:43:37.747Z,27.93
2022-08-03T08:46:05.939Z,27.79
2022-08-03T08:48:32.342Z,27.92
2022-08-03T08:51:00.692Z,28.14
2022-08-03T08:53:31.426Z,28.21
2022-08-03T08:56:00.857Z,28.23
2022-08-03T08:58:37.213Z,28.38
2022-08-03T09:01:05.046Z,28.43
2022-08-03T09:03:33.979Z,28.48
2022-08-03T09:06:01.607Z,28.69
2022-08-03T09:08:32.827Z,28.72
2022-08-03T09:10:59.848Z,28.59
2022-08-03T09:13:26.372Z,28.67
2022-08-03T09:16:11.231Z,28.65
2022-08-03T09:18:38.074Z,28.82
2022-08-03T09:21:33.199Z,28.97
2022-08-03T09:24:03.661Z,29.13
2022-08-03T09:26:32.217Z,29.06
2022-08-03T09:29:05.615Z,29.10
2022-08-03T09:31:43.573Z,29.12
2022-08-03T09:34:16.734Z,29.11
2022-08-03T09:36:44.425Z,29.13
2022-08-03T09:39:13.070Z,28.97
2022-08-03T09:41:41.695Z,29.03
2022-08-03T09:44:08.355Z,29.04
2022-08-03T09:46:51.848Z,29.21
2022-08-03T09:49:18.728Z,29.48
2022-08-03T09:52:32.046Z,29.67
2022-08-03T09:54:32.607Z,29.75
2022-08-03T09:56:59.188Z,29.95
2022-08-03T09:59:28.118Z,30.04
2022-08-03T10:01:55.981Z,30.00
2022-08-03T10:04:23.148Z,29.88
2022-08-03T10:07:09.468Z,29.60
2022-08-03T10:09:37.174Z,29.47
2022-08-03T10:12:13.828Z,29.81
2022-08-03T10:14:41.689Z,29.93
2022-08-03T10:17:09.558Z,29.70
2022-08-03T10:19:35.973Z,29.94
2022-08-03T10:22:13.750Z,29.94
2022-08-03T10:24:47.586Z,30.27
2022-08-03T10:27:15.629Z,30.29
2022-08-03T10:29:45.911Z,30.47
2022-08-03T10:32:31.328Z,30.57
2022-08-03T10:35:19.148Z,30.48
2022-08-03T10:38:03.271Z,30.65
2022-08-03T10:40:49.589Z,30.59
2022-08-03T10:43:25.937Z,30.79
2022-08-03T10:45:52.493Z,31.01
2022-08-03T10:48:19.828Z,30.97
2022-08-03T10:50:48.266Z,31.11
2022-08-03T10:53:14.788Z,31.20
2022-08-03T10:55:46.334Z,31.36
2022-08-03T10:58:12.692Z,31.44
2022-08-03T11:00:56.693Z,31.57
2022-08-03T11:03:23.139Z,31.35
2022-08-03T11:05:49.584Z,31.47
2022-08-03T11:08:21.680Z,31.54
2022-08-03T11:10:50.608Z,31.56
2022-08-03T11:13:20.003Z,31.44
2022-08-03T11:15:49.653Z,31.37
2022-08-03T11:18:16.057Z,31.18
2022-08-03T11:20:49.906Z,31.27
2022-08-03T11:23:18.096Z,31.52
2022-08-03T11:26:10.255Z,31.48
2022-08-03T11:28:37.088Z,31.19
2022-08-03T11:34:16.602Z,31.02
2022-08-03T11:37:21.859Z,30.98
2022-08-03T11:39:50.235Z,31.18
2022-08-03T11:42:22.457Z,31.24
2022-08-03T11:44:59.161Z,31.35
2022-08-03T11:47:27.865Z,31.28
2022-08-03T11:49:56.988Z,31.34
2022-08-03T11:52:27.018Z,31.41
2022-08-03T11:54:57.051Z,31.58
2022-08-03T11:59:01.554Z,31.91
2022-08-03T12:00:22.841Z,31.93
2022-08-03T12:03:04.872Z,31.52
2022-08-03T12:05:51.909Z,31.64
2022-08-03T12:08:27.814Z,31.70
2022-08-03T12:10:55.985Z,31.69
2022-08-03T12:14:33.127Z,31.70
2022-08-03T12:16:09.694Z,31.39
2022-08-03T12:18:36.375Z,31.32
2022-08-03T12:21:08.562Z,31.51
2022-08-03T12:23:37.805Z,31.48
2022-08-03T12:26:09.907Z,31.30
2022-08-03T12:28:38.335Z,31.30
2022-08-03T12:31:07.694Z,31.43
2022-08-03T12:34:01.679Z,31.35
2022-08-03T12:36:29.331Z,31.47
2022-08-03T12:39:05.398Z,31.65
2022-08-03T12:41:38.167Z,31.75
2022-08-03T12:44:06.741Z,31.83
2022-08-03T12:46:33.002Z,31.79
2022-08-03T12:49:07.984Z,31.86
2022-08-03T12:51:56.050Z,31.90
2022-08-03T12:54:25.093Z,31.79
2022-08-03T12:57:06.006Z,31.97
2022-08-03T12:59:40.427Z,32.04
2022-08-03T13:02:14.019Z,32.02
2022-08-03T13:04:41.711Z,31.87
2022-08-03T13:07:12.872Z,32.14
2022-08-03T13:09:47.582Z,32.18
2022-08-03T13:12:16.302Z,32.05
2022-08-03T13:14:44.212Z,31.91
2022-08-03T13:17:11.359Z,32.02
2022-08-03T13:19:39.622Z,32.24
2022-08-03T13:22:13.837Z,32.20
2022-08-03T13:24:40.394Z,32.05
2022-08-03T13:28:01.464Z,32.10
2022-08-03T13:29:53.868Z,32.26
2022-08-03T13:32:21.254Z,32.42
2022-08-03T13:34:48.074Z,32.66
2022-08-03T13:37:15.062Z,32.53
2022-08-03T13:39:58.149Z,32.50
2022-08-03T13:42:26.731Z,32.56
2022-08-03T13:44:53.071Z,32.58
2022-08-03T13:47:20.203Z,32.51
2022-08-03T13:49:59.918Z,32.50
2022-08-03T13:52:32.118Z,32.29
2022-08-03T13:54:58.582Z,32.35
2022-08-03T13:58:05.033Z,32.21
2022-08-03T14:00:11.803Z,32.13
2022-08-03T14:02:38.407Z,32.12
2022-08-03T14:05:05.214Z,32.29
2022-08-03T14:07:31.598Z,32.36
2022-08-03T14:09:57.946Z,32.40
2022-08-03T14:12:24.324Z,32.30
2022-08-03T14:14:50.657Z,32.21
2022-08-03T14:17:17.103Z,32.19
2022-08-03T14:19:53.096Z,32.48
2022-08-03T14:22:20.743Z,32.56
2022-08-03T14:24:47.119Z,32.44
2022-08-03T14:27:13.456Z,32.52
2022-08-03T14:29:39.815Z,32.61
2022-08-03T14:32:10.874Z,32.36
2022-08-03T14:34:39.405Z,32.29
2022-08-03T14:37:05.783Z,32.23
2022-08-03T14:42:18.537Z,32.38
2022-08-03T14:44:44.879Z,32.71
2022-08-03T14:47:11.215Z,32.69
2022-08-03T14:50:37.431Z,32.76
2022-08-03T14:52:24.019Z,32.80
2022-08-03T14:54:50.356Z,32.78
2022-08-03T14:57:16.788Z,32.66
2022-08-03T14:59:56.127Z,32.76
2022-08-03T15:02:24.618Z,32.90
2022-08-03T15:04:51.450Z,33.10
2022-08-03T15:07:18.192Z,32.97
2022-08-03T15:09:44.819Z,32.91
2022-08-03T15:12:11.158Z,32.78
2022-08-03T15:14:38.650Z,32.74
2022-08-03T15:17:05.391Z,33.09
2022-08-03T15:20:01.134Z,33.12
2022-08-03T15:22:20.479Z,33.18
2022-08-03T15:24:47.257Z,32.84
2022-08-03T15:27:13.591Z,32.77
2022-08-03T15:30:08.849Z,32.95
2022-08-03T15:32:26.230Z,32.97
2022-08-03T15:34:52.701Z,32.85
2022-08-03T15:37:19.924Z,33.11
2022-08-03T15:39:59.443Z,32.98
2022-08-03T15:42:28.545Z,33.03
2022-08-03T15:44:54.955Z,32.99
2022-08-03T15:47:21.646Z,32.95
2022-08-03T15:49:48.211Z,32.66
2022-08-03T15:52:14.538Z,32.60
2022-08-03T15:54:40.909Z,32.67
2022-08-03T15:57:07.317Z,32.54
2022-08-03T15:59:33.884Z,32.60
2022-08-03T16:02:00.340Z,32.52
2022-08-03T16:04:26.780Z,32.41
2022-08-03T16:06:53.298Z,32.13
2022-08-03T16:09:22.995Z,31.80
2022-08-03T16:12:11.862Z,31.63
2022-08-03T16:14:51.818Z,31.61
2022-08-03T16:17:20.559Z,31.57
2022-08-03T16:19:47.160Z,31.06
2022-08-03T16:22:14.366Z,30.91
2022-08-03T16:24:41.117Z,30.80
2022-08-03T16:27:12.865Z,30.89
2022-08-03T16:29:44.181Z,30.92
2022-08-03T16:32:11.066Z,31.08
2022-08-03T16:34:38.399Z,31.45
2022-08-03T16:37:22.461Z,31.69
2022-08-03T16:39:52.620Z,31.95
2022-08-03T16:42:19.192Z,31.96
2022-08-03T16:44:45.527Z,31.99
2022-08-03T16:47:21.695Z,31.86
2022-08-03T16:49:54.012Z,31.63
2022-08-03T16:52:23.581Z,31.55
2022-08-03T16:54:53.210Z,31.23
2022-08-03T16:57:58.748Z,31.18
2022-08-03T17:00:09.591Z,31.17
2022-08-03T17:02:36.351Z,31.17
2022-08-03T17:05:03.308Z,31.01
2022-08-03T17:07:30.510Z,30.95
2022-08-03T17:09:57.543Z,30.79
2022-08-03T17:12:26.895Z,30.63
2022-08-03T17:14:54.257Z,30.46
2022-08-03T17:17:29.560Z,30.40
2022-08-03T17:19:57.974Z,30.50
2022-08-03T17:22:32.719Z,30.48
2022-08-03T17:25:08.507Z,30.47
2022-08-03T17:28:49.246Z,30.52
2022-08-03T17:30:25.328Z,30.47
2022-08-03T17:32:57.617Z,30.27
2022-08-03T17:35:34.349Z,30.18
2022-08-03T17:38:06.617Z,30.13
2022-08-03T17:40:35.516Z,30.07
2022-08-03T17:44:12.901Z,30.07
2022-08-03T17:45:55.132Z,30.12
2022-08-03T17:48:24.860Z,30.16
2022-08-03T17:50:59.633Z,30.08
2022-08-03T17:53:31.337Z,29.88
2022-08-03T17:56:40.717Z,29.88
2022-08-03T17:59:13.570Z,29.78
2022-08-03T18:02:30.811Z,29.65
2022-08-03T18:05:16.603Z,29.56
2022-08-03T18:07:48.899Z,29.47
2022-08-03T18:10:26.216Z,29.43
2022-08-03T18:12:57.766Z,29.37
2022-08-03T18:15:34.691Z,29.20
2022-08-03T18:18:10.333Z,29.12
2022-08-03T18:20:41.766Z,29.08
2022-08-03T18:23:24.971Z,28.88
2022-08-03T18:26:05.183Z,28.70
2022-08-03T18:28:33.600Z,28.62
2022-08-03T18:31:04.256Z,28.46
2022-08-03T18:34:16.178Z,28.27
2022-08-03T18:36:30.081Z,28.05
2022-08-03T18:38:59.304Z,27.82
2022-08-03T18:41:32.921Z,27.65
2022-08-03T18:44:08.323Z,27.31
2022-08-03T18:46:47.281Z,27.18
2022-08-03T18:49:20.612Z,27.19
2022-08-03T18:51:56.132Z,27.12
2022-08-03T18:55:01.147Z,26.94
2022-08-03T18:57:44.294Z,26.88
2022-08-03T19:00:14.351Z,26.81
2022-08-03T19:02:48.663Z,26.74
2022-08-03T19:05:23.063Z,26.57
2022-08-03T19:07:59.781Z,26.38
2022-08-03T19:10:32.159Z,26.22
2022-08-03T19:13:16.947Z,26.15
2022-08-03T19:15:51.344Z,26.08
2022-08-03T19:18:20.827Z,25.90
2022-08-03T19:20:51.446Z,25.76
2022-08-03T19:23:25.572Z,25.64
2022-08-03T19:25:53.042Z,25.57
2022-08-03T19:28:30.067Z,25.49
2022-08-03T19:30:59.909Z,25.41
2022-08-03T19:33:31.075Z,25.32
2022-08-03T19:36:17.826Z,25.18
2022-08-03T19:38:54.462Z,25.11
2022-08-03T19:41:24.593Z,25.04
2022-08-03T19:43:59.433Z,24.97
2022-08-03T19:46:30.678Z,24.92
2022-08-03T19:49:10.340Z,24.72
2022-08-03T19:51:58.358Z,24.67
2022-08-03T19:54:36.975Z,24.61
2022-08-03T19:57:17.307Z,24.57
2022-08-03T19:59:50.053Z,24.54
2022-08-03T20:02:27.310Z,24.45
2022-08-03T20:04:57.933Z,24.38
2022-08-03T20:07:27.859Z,24.29
2022-08-03T20:09:56.697Z,24.25
2022-08-03T20:12:28.179Z,24.16
2022-08-03T20:14:57.136Z,24.08
2022-08-03T20:17:56.820Z,24.01
2022-08-03T20:20:10.067Z,24.00
2022-08-03T20:22:39.793Z,24.01
2022-08-03T20:25:07.841Z,23.97
2022-08-03T20:28:06.652Z,23.91
2022-08-03T20:30:33.082Z,23.80
2022-08-03T20:32:59.463Z,23.67
2022-08-03T20:35:25.808Z,23.54
2022-08-03T20:37:54.516Z,23.46
2022-08-03T20:40:22.626Z,23.43
2022-08-03T20:42:53.870Z,23.34
2022-08-03T20:46:01.077Z,23.32
2022-08-03T20:48:09.663Z,23.24
2022-08-03T20:50:40.323Z,23.22
2022-08-03T20:53:10.488Z,23.20
2022-08-03T20:55:47.549Z,23.10
2022-08-03T20:58:25.526Z,22.98
2022-08-03T21:00:53.658Z,22.97
2022-08-03T21:03:20.097Z,22.91
2022-08-03T21:05:53.547Z,22.90
2022-08-03T21:08:22.529Z,22.81
2022-08-03T21:10:50.017Z,22.62
2022-08-03T21:13:24.535Z,22.46
2022-08-03T21:16:03.319Z,22.53
2022-08-03T21:18:45.282Z,22.58
2022-08-03T21:21:15.110Z,22.61
2022-08-03T21:23:49.129Z,22.60
2022-08-03T21:26:18.345Z,22.54
2022-08-03T21:28:49.676Z,22.52
2022-08-03T21:31:23.725Z,22.52
2022-08-03T21:33:53.878Z,22.37
2022-08-03T21:36:20.291Z,22.40
2022-08-03T21:38:55.774Z,22.29
2022-08-03T21:41:23.543Z,22.26
2022-08-03T21:43:49.975Z,22.24
2022-08-03T21:46:19.037Z,22.24
2022-08-03T21:48:47.896Z,22.15
2022-08-03T21:51:17.226Z,22.01
2022-08-03T21:54:02.627Z,21.94
2022-08-03T21:56:40.145Z,21.83
2022-08-03T21:59:08.576Z,21.82
2022-08-03T22:01:39.531Z,21.76
2022-08-03T22:04:07.212Z,21.82
2022-08-03T22:06:36.047Z,21.74
2022-08-03T22:09:05.504Z,21.64
2022-08-03T22:11:36.219Z,21.58
2022-08-03T22:14:02.961Z,21.47
2022-08-03T22:16:30.174Z,21.46
2022-08-03T22:18:56.518Z,21.40
2022-08-03T22:21:36.394Z,21.43
2022-08-03T22:24:05.579Z,21.53
2022-08-03T22:26:35.397Z,21.56
2022-08-03T22:29:07.293Z,21.53
2022-08-03T22:31:58.381Z,21.50
2022-08-03T22:34:26.874Z,21.38
2022-08-03T22:36:57.302Z,21.34
2022-08-03T22:39:28.606Z,21.29
2022-08-03T22:41:57.426Z,21.26
2022-08-03T22:44:24.209Z,21.19
2022-08-03T22:46:50.607Z,21.11
2022-08-03T22:49:18.227Z,21.10
2022-08-03T22:51:44.776Z,20.94
2022-08-03T22:54:11.854Z,20.92
2022-08-03T22:56:38.765Z,20.88
2022-08-03T22:59:40.257Z,20.88
2022-08-03T23:02:00.304Z,20.76
2022-08-03T23:04:32.561Z,20.69
2022-08-03T23:07:02.958Z,20.63
2022-08-03T23:09:30.986Z,20.57
2022-08-03T23:12:00.884Z,20.53
2022-08-03T23:14:30.232Z,20.49
2022-08-03T23:17:02.769Z,20.40
2022-08-03T23:19:30.398Z,20.42
2022-08-03T23:22:04.063Z,20.39
2022-08-03T23:24:36.053Z,20.14
2022-08-03T23:27:04.299Z,20.05
2022-08-03T23:29:33.666Z,20.16
2022-08-03T23:32:01.611Z,20.17
2022-08-03T23:34:30.703Z,20.15
2022-08-03T23:36:58.246Z,20.06
2022-08-03T23:39:28.483Z,20.06
2022-08-03T23:42:01.603Z,19.97
2022-08-03T23:44:30.137Z,19.86
2022-08-03T23:46:57.248Z,19.90
2022-08-03T23:49:23.668Z,19.92
2022-08-03T23:52:09.306Z,19.81
2022-08-03T23:54:46.372Z,19.79
2022-08-03T23:57:47.054Z,19.66
